Yiwu, China
Current Conditions -  °F | °C
As of 8:00 AM on Sunday 23 Nov 2014 (Local Time) from ZWWW Reporting Station
Smoke Smoke  
Wind Chill: 25°   Ceiling: Unl
Heat Index: 25°   Visibility: 3mi
Dew Point: 19°   Wind: 2mph
Humidity: 80%   Direction: NA
Pressure: 30.24"   Gusts: NA
Location:  43.27°N, 94.7°E
Report Text: ZWWW 230000Z VRB01MPS 5000 FU NSC M04/M07 Q1024 NOSIG
Loading
Personal Weather Stations






























Interactive Weather Map New forecast layout! Learn more

10-Day Weather Forecast

Advertisements
Track Severe Weather on mobile